Logo AVAMET
Benvolgut visitant, si us plau, ingressa Recuperar contrasenya

Finestrat la Cala

Dades diàries. Acumulats / Últims 30 dies disponibles

Data Temperatura (°C) Humitat rel. (%) Pressió rel. (hPa) Vent (km/h) Precipitació
Mínima Mitjana Màxima Amplitud
tèrmica
Mínima Mitjana Màxima Mínima Mitjana Màxima Predom. Mitjana Ràfega
màxima
Total
(mm)
Índex-n
Mínima Mitjana Màxima Mínima Mitjana Màxima n
0 a 1
P0 max
mm 5'
Dades mensuals acumulades fins l'últim dia disponible
12/2019 8,9 11,2 15,2 14,2 14,9 17,9 21,9 13,0 26 65 87 1.004 1.018 1.028   6,4 59,5 70,3
Dades anuals acumulades fins l'últim dia disponible
2019 6,6 15,3 27,2 18,8 13,4 22,8 36,1 29,5 10 60 95 996 1.018 1.036   6,1 72,4 442,2
Últims 30 dies disponibles
13-12-2019 15,2     18,8     21,2 6,0 38 47 54 1.009 1.012 1.015 OSO 18,2 53,1 0,0
12-12-2019 10,5     14,4     17,8 7,3 30 40 51 1.012 1.019 1.023 OSO 11,0 48,3 0,0
11-12-2019 8,9     14,2     21,9 13,0 28 55 82 1.018 1.021 1.024 OSO 6,6 45,1 0,0
10-12-2019 10,0     13,1     17,3 7,3 37 58 76 1.024 1.026 1.027 OSO 3,3 24,1 0,0
09-12-2019 12,6     15,5     20,7 8,1 26 60 76 1.022 1.025 1.028 SO 2,3 16,1 0,0
08-12-2019 9,4     12,7     16,7 7,3 69 78 85 1.023 1.024 1.026 SO 1,5 14,5 0,0
07-12-2019 9,9     12,8     16,6 6,7 60 73 78 1.023 1.024 1.026 OSO 1,0 11,3 0,0
06-12-2019 11,6     14,4     18,9 7,3 51 68 79 1.022 1.023 1.025 SSE 2,8 19,3 0,0
05-12-2019 11,6     13,8     16,2 4,6 66 76 86 1.011 1.017 1.023 E 3,4 17,7 6,3 0,68 1,40
04-12-2019 11,2     13,1     15,7 4,5 65 76 84 1.004 1.007 1.011 S 4,0 40,2 26,4 0,51 2,30
03-12-2019 11,0     12,8     14,9 3,9 58 72 86 1.009 1.013 1.017 ENE 20,0 59,5 7,9 0,37 0,50
02-12-2019 12,6     14,3     16,6 4,0 57 73 87 1.012 1.014 1.017 ENE 6,9 29,0 29,7 0,53 2,60
01-12-2019 11,6     14,1     17,6 6,0 66 77 86 1.012 1.013 1.016 SSE 2,5 22,5 0,0
30-11-2019 13,4     16,1     20,4 7,0 53 67 80 1.016 1.020 1.022 OSO 4,5 32,2 0,0
29-11-2019 12,4     16,5     22,3 9,9 43 60 68 1.018 1.020 1.022 SSO 1,5 9,7 0,0
28-11-2019 14,0     17,3     21,6 7,6 40 52 68 1.015 1.017 1.019 SO 8,6 32,2 0,0
27-11-2019 13,6     18,0     23,2 9,6 33 55 80 1.010 1.012 1.015 OSO 7,3 43,4 0,0
26-11-2019 13,9     17,2     21,7 7,8 42 64 83 1.012 1.014 1.017 OSO 4,5 24,1 0,0
25-11-2019 12,0     16,7     21,6 9,6 41 57 70 1.013 1.015 1.017 SO 5,8 30,6 0,0
24-11-2019 13,1     15,8     19,2 6,1 26 36 44 1.008 1.012 1.015 O 13,1 53,1 0,0
23-11-2019 12,3     15,0     17,2 4,9 36 52 88 996 1.001 1.008 O 15,4 62,8 0,0
22-11-2019 10,8     13,4     15,3 4,5 65 76 89 997 1.005 1.010 O 5,5 25,7 12,7 0,68 0,80
21-11-2019 9,9     13,3     16,7 6,8 51 65 71 1.010 1.011 1.012 OSO 3,5 19,3 0,0
20-11-2019 8,8     12,5     16,6 7,8 36 56 76 1.011 1.013 1.017 OSO 4,7 20,9 0,8
19-11-2019 7,8     11,1     14,9 7,1 37 53 61 1.016 1.017 1.019 SO 2,2 20,9 0,0
18-11-2019 10,0     13,2     17,7 7,7 43 63 83 1.007 1.012 1.018 SO 3,6 30,6 3,8 0,36 0,50
17-11-2019 9,8     13,8     17,2 7,4 32 44 73 1.011 1.014 1.016 OSO 10,9 43,4 3,0 0,50
16-11-2019 10,4     12,6     16,2 5,8 33 43 56 1.007 1.012 1.016 SO 4,7 27,4 0,0
15-11-2019 10,4     13,2     16,5 6,1 29 41 52 1.003 1.005 1.008 OSO 8,7 32,2 0,0
14-11-2019 12,2     14,7     18,2 6,0 36 57 80 1.002 1.004 1.013 OSO 7,3 37,0 0,0
Últims 13 mesos disponibles
11/2019 7,8 13,0 21,0 16,3 14,9 20,0 27,6 19,8 33 50 76 1.001 1.012 1.020 OSO 8,0 62,8 21,3
10/2019 11,6 17,3 21,4 20,7 16,9 24,6 28,9 17,3 40 65 81 1.010 1.018 1.023 OSO 4,1 62,8 71,9
09/2019 16,0 20,3 24,0 23,7 22,4 27,1 29,3 13,3 46 70 81 1.011 1.018 1.023 OSO 6,4 64,4 107,1
07/2019 21,6 24,0 27,2 27,3 28,8 31,2 35,5 13,9 23 54 76 1.012 1.015 1.021 ENE 6,1 43,4 1,5
06/2019 15,5 19,2 25,0 23,3 23,3 27,4 36,1 20,6 32 59 78 1.010 1.016 1.023 SSO 6,2 48,2 0,0
05/2019 11,6 15,6 19,0 19,1 18,9 22,9 28,2 16,6 43 63 78 1.007 1.017 1.026 S 6,2 56,3 2,2
04/2019 10,1 12,8 16,6 15,8 15,6 19,3 25,0 14,9 41 64 86 1.001 1.014 1.027 SO 7,1 72,4 149,9
03/2019 8,2 10,6 12,7 14,6 13,4 19,0 24,3 16,1 41 57 76 1.012 1.024 1.032 SO 6,2 48,3 18,0
02/2019 6,6 8,7 11,1 12,7 13,7 17,2 21,2 14,6 47 61 72 1.022 1.028 1.034 OSO 4,1 33,8 0,0
Tots els anys disponibles
Temperatura (°C)
Humitat relativa (%)
Velocitat del vent i ràfega màxima (km/h)
Direcció del vent (°)
Pressió (hPa)
Precipitació (mm)
Nota sobre les dades: s'avisa a l'usuari de la provisionalitat i no oficialitat d'aquestes dades
Logo AVAMET blanc
Web allotjada a Sollutia
Llicència de Creative CommonsLa web d'AVAMET i els seus continguts estan subjectes a una llicència de
Reconeixement - No Comercial - Compartir igual
Últimes estacions: Aielo de Malferit - Centre (Soci), Faura (Inforatge), Benifairó de les Valls (Inforatge), Xàbia - Les Valls (Soci) - - -